sensor_id;sensor_type;location;lat;lon;timestamp;P1;durP1;ratioP1;P2;durP2;ratioP2
11044;SDS011;9786;42.714;23.272;2024-02-28T00:01:38;23.07;;;18.53;;
11044;SDS011;9786;42.714;23.272;2024-02-28T00:04:19;18.27;;;14.23;;
11044;SDS011;9786;42.714;23.272;2024-02-28T00:06:51;23.50;;;16.63;;
11044;SDS011;9786;42.714;23.272;2024-02-28T00:09:20;21.20;;;18.00;;
11044;SDS011;9786;42.714;23.272;2024-02-28T00:11:49;22.00;;;17.87;;
11044;SDS011;9786;42.714;23.272;2024-02-28T00:14:20;24.03;;;17.67;;
11044;SDS011;9786;42.714;23.272;2024-02-28T00:16:49;16.20;;;12.97;;
11044;SDS011;9786;42.714;23.272;2024-02-28T00:19:19;17.63;;;13.50;;
11044;SDS011;9786;42.714;23.272;2024-02-28T00:21:49;19.90;;;13.80;;
11044;SDS011;9786;42.714;23.272;2024-02-28T00:24:18;18.90;;;13.80;;
11044;SDS011;9786;42.714;23.272;2024-02-28T00:26:49;18.23;;;14.17;;
11044;SDS011;9786;42.714;23.272;2024-02-28T00:29:18;16.60;;;12.83;;
11044;SDS011;9786;42.714;23.272;2024-02-28T00:31:47;15.80;;;13.30;;
11044;SDS011;9786;42.714;23.272;2024-02-28T00:34:15;17.70;;;13.13;;
11044;SDS011;9786;42.714;23.272;2024-02-28T00:36:45;17.97;;;12.73;;
11044;SDS011;9786;42.714;23.272;2024-02-28T00:39:22;17.37;;;13.20;;
11044;SDS011;9786;42.714;23.272;2024-02-28T00:41:51;17.57;;;12.37;;
11044;SDS011;9786;42.714;23.272;2024-02-28T00:44:19;18.03;;;13.30;;
11044;SDS011;9786;42.714;23.272;2024-02-28T00:46:48;16.20;;;13.47;;
11044;SDS011;9786;42.714;23.272;2024-02-28T00:49:20;16.87;;;13.60;;
11044;SDS011;9786;42.714;23.272;2024-02-28T00:51:50;15.33;;;11.90;;
11044;SDS011;9786;42.714;23.272;2024-02-28T00:54:19;15.47;;;10.87;;
11044;SDS011;9786;42.714;23.272;2024-02-28T00:56:50;16.87;;;12.20;;
11044;SDS011;9786;42.714;23.272;2024-02-28T00:59:19;16.63;;;11.53;;
11044;SDS011;9786;42.714;23.272;2024-02-28T01:01:48;16.63;;;13.40;;
11044;SDS011;9786;42.714;23.272;2024-02-28T01:04:17;13.50;;;12.07;;
11044;SDS011;9786;42.714;23.272;2024-02-28T01:06:45;16.50;;;11.83;;
11044;SDS011;9786;42.714;23.272;2024-02-28T01:09:16;20.37;;;14.40;;
11044;SDS011;9786;42.714;23.272;2024-02-28T01:11:44;20.50;;;13.07;;
11044;SDS011;9786;42.714;23.272;2024-02-28T01:14:13;16.33;;;12.17;;
11044;SDS011;9786;42.714;23.272;2024-02-28T01:16:42;15.33;;;11.33;;
11044;SDS011;9786;42.714;23.272;2024-02-28T01:19:10;14.90;;;11.13;;
11044;SDS011;9786;42.714;23.272;2024-02-28T01:21:39;15.43;;;12.97;;
11044;SDS011;9786;42.714;23.272;2024-02-28T01:24:07;13.97;;;11.03;;
11044;SDS011;9786;42.714;23.272;2024-02-28T01:26:38;14.53;;;12.10;;
11044;SDS011;9786;42.714;23.272;2024-02-28T01:29:08;16.67;;;12.20;;
11044;SDS011;9786;42.714;23.272;2024-02-28T01:31:36;14.90;;;12.50;;
11044;SDS011;9786;42.714;23.272;2024-02-28T01:34:05;16.23;;;11.87;;
11044;SDS011;9786;42.714;23.272;2024-02-28T01:36:33;15.27;;;12.07;;
11044;SDS011;9786;42.714;23.272;2024-02-28T01:39:02;16.57;;;13.57;;
11044;SDS011;9786;42.714;23.272;2024-02-28T01:41:31;12.13;;;10.27;;
11044;SDS011;9786;42.714;23.272;2024-02-28T01:44:01;13.13;;;11.30;;
11044;SDS011;9786;42.714;23.272;2024-02-28T01:46:29;16.80;;;14.97;;
11044;SDS011;9786;42.714;23.272;2024-02-28T01:48:59;15.10;;;11.47;;
11044;SDS011;9786;42.714;23.272;2024-02-28T01:51:28;17.93;;;14.63;;
11044;SDS011;9786;42.714;23.272;2024-02-28T01:53:57;18.03;;;15.27;;
11044;SDS011;9786;42.714;23.272;2024-02-28T01:56:28;15.73;;;12.37;;
11044;SDS011;9786;42.714;23.272;2024-02-28T01:58:58;16.43;;;12.37;;
11044;SDS011;9786;42.714;23.272;2024-02-28T02:01:28;17.67;;;13.33;;
11044;SDS011;9786;42.714;23.272;2024-02-28T02:03:57;18.37;;;12.57;;
11044;SDS011;9786;42.714;23.272;2024-02-28T02:06:26;17.87;;;13.27;;
11044;SDS011;9786;42.714;23.272;2024-02-28T02:08:55;15.23;;;12.17;;
11044;SDS011;9786;42.714;23.272;2024-02-28T02:11:25;18.80;;;14.60;;
11044;SDS011;9786;42.714;23.272;2024-02-28T02:13:53;17.57;;;13.73;;
11044;SDS011;9786;42.714;23.272;2024-02-28T02:16:22;13.87;;;11.57;;
11044;SDS011;9786;42.714;23.272;2024-02-28T02:18:55;18.80;;;12.80;;
11044;SDS011;9786;42.714;23.272;2024-02-28T02:21:24;15.27;;;11.13;;
11044;SDS011;9786;42.714;23.272;2024-02-28T02:24:00;19.97;;;14.93;;
11044;SDS011;9786;42.714;23.272;2024-02-28T02:26:29;17.53;;;14.33;;
11044;SDS011;9786;42.714;23.272;2024-02-28T02:28:57;17.50;;;14.47;;
11044;SDS011;9786;42.714;23.272;2024-02-28T02:31:26;22.00;;;15.50;;
11044;SDS011;9786;42.714;23.272;2024-02-28T02:33:55;15.53;;;12.63;;
11044;SDS011;9786;42.714;23.272;2024-02-28T02:36:23;14.97;;;12.00;;
11044;SDS011;9786;42.714;23.272;2024-02-28T02:38:52;17.10;;;13.37;;
11044;SDS011;9786;42.714;23.272;2024-02-28T02:41:22;20.43;;;14.83;;
11044;SDS011;9786;42.714;23.272;2024-02-28T02:43:51;19.57;;;14.40;;
11044;SDS011;9786;42.714;23.272;2024-02-28T02:46:19;19.60;;;15.13;;
11044;SDS011;9786;42.714;23.272;2024-02-28T02:48:48;17.37;;;13.87;;
11044;SDS011;9786;42.714;23.272;2024-02-28T02:51:18;20.07;;;13.33;;
11044;SDS011;9786;42.714;23.272;2024-02-28T02:53:47;21.53;;;16.23;;
11044;SDS011;9786;42.714;23.272;2024-02-28T02:56:15;16.57;;;13.13;;
11044;SDS011;9786;42.714;23.272;2024-02-28T02:58:45;15.80;;;12.63;;
11044;SDS011;9786;42.714;23.272;2024-02-28T03:01:14;25.97;;;18.53;;
11044;SDS011;9786;42.714;23.272;2024-02-28T03:03:42;23.90;;;16.47;;
11044;SDS011;9786;42.714;23.272;2024-02-28T03:06:12;16.43;;;13.73;;
11044;SDS011;9786;42.714;23.272;2024-02-28T03:08:41;24.83;;;18.33;;
11044;SDS011;9786;42.714;23.272;2024-02-28T03:11:09;26.20;;;20.37;;
11044;SDS011;9786;42.714;23.272;2024-02-28T03:13:38;24.27;;;18.57;;
11044;SDS011;9786;42.714;23.272;2024-02-28T03:16:08;21.83;;;16.93;;
11044;SDS011;9786;42.714;23.272;2024-02-28T03:18:37;19.00;;;15.07;;
11044;SDS011;9786;42.714;23.272;2024-02-28T03:21:05;18.90;;;15.63;;
11044;SDS011;9786;42.714;23.272;2024-02-28T03:23:34;21.50;;;15.90;;
11044;SDS011;9786;42.714;23.272;2024-02-28T03:26:03;19.17;;;14.33;;
11044;SDS011;9786;42.714;23.272;2024-02-28T03:28:31;17.87;;;14.57;;
11044;SDS011;9786;42.714;23.272;2024-02-28T03:31:00;23.10;;;18.93;;
11044;SDS011;9786;42.714;23.272;2024-02-28T03:33:30;16.93;;;12.87;;
11044;SDS011;9786;42.714;23.272;2024-02-28T03:36:00;19.63;;;14.33;;
11044;SDS011;9786;42.714;23.272;2024-02-28T03:38:29;25.77;;;18.60;;
11044;SDS011;9786;42.714;23.272;2024-02-28T03:40:57;21.67;;;16.03;;
11044;SDS011;9786;42.714;23.272;2024-02-28T03:43:26;16.73;;;14.53;;
11044;SDS011;9786;42.714;23.272;2024-02-28T03:45:55;16.87;;;14.10;;
11044;SDS011;9786;42.714;23.272;2024-02-28T03:48:24;24.70;;;17.30;;
11044;SDS011;9786;42.714;23.272;2024-02-28T03:50:54;20.33;;;15.23;;
11044;SDS011;9786;42.714;23.272;2024-02-28T03:53:22;26.97;;;18.70;;
11044;SDS011;9786;42.714;23.272;2024-02-28T03:55:51;17.43;;;15.07;;
11044;SDS011;9786;42.714;23.272;2024-02-28T03:58:20;25.87;;;19.73;;
11044;SDS011;9786;42.714;23.272;2024-02-28T04:00:48;24.90;;;17.97;;
11044;SDS011;9786;42.714;23.272;2024-02-28T04:03:16;23.90;;;18.93;;
11044;SDS011;9786;42.714;23.272;2024-02-28T04:05:45;22.33;;;17.87;;
11044;SDS011;9786;42.714;23.272;2024-02-28T04:08:15;23.23;;;16.33;;
11044;SDS011;9786;42.714;23.272;2024-02-28T04:10:44;24.97;;;18.07;;
11044;SDS011;9786;42.714;23.272;2024-02-28T04:13:12;18.50;;;13.90;;
11044;SDS011;9786;42.714;23.272;2024-02-28T04:15:41;19.27;;;15.43;;
11044;SDS011;9786;42.714;23.272;2024-02-28T04:18:12;20.60;;;15.37;;
11044;SDS011;9786;42.714;23.272;2024-02-28T04:20:41;15.37;;;13.57;;
11044;SDS011;9786;42.714;23.272;2024-02-28T04:23:09;23.33;;;18.13;;
11044;SDS011;9786;42.714;23.272;2024-02-28T04:25:40;22.73;;;17.27;;
11044;SDS011;9786;42.714;23.272;2024-02-28T04:28:08;17.93;;;14.77;;
11044;SDS011;9786;42.714;23.272;2024-02-28T04:30:37;22.03;;;16.80;;
11044;SDS011;9786;42.714;23.272;2024-02-28T04:33:06;22.60;;;16.60;;
11044;SDS011;9786;42.714;23.272;2024-02-28T04:35:35;20.67;;;15.17;;
11044;SDS011;9786;42.714;23.272;2024-02-28T04:38:03;18.27;;;15.13;;
11044;SDS011;9786;42.714;23.272;2024-02-28T04:40:32;20.40;;;16.13;;
11044;SDS011;9786;42.714;23.272;2024-02-28T04:43:02;18.67;;;15.30;;
11044;SDS011;9786;42.714;23.272;2024-02-28T04:45:31;28.30;;;18.07;;
11044;SDS011;9786;42.714;23.272;2024-02-28T04:47:59;26.80;;;19.97;;
11044;SDS011;9786;42.714;23.272;2024-02-28T04:50:27;26.20;;;17.07;;
11044;SDS011;9786;42.714;23.272;2024-02-28T04:52:56;23.30;;;18.73;;
11044;SDS011;9786;42.714;23.272;2024-02-28T04:55:24;25.80;;;19.33;;
11044;SDS011;9786;42.714;23.272;2024-02-28T04:57:53;26.60;;;19.30;;
11044;SDS011;9786;42.714;23.272;2024-02-28T05:00:23;28.33;;;21.10;;
11044;SDS011;9786;42.714;23.272;2024-02-28T05:02:52;30.20;;;21.00;;
11044;SDS011;9786;42.714;23.272;2024-02-28T05:05:21;21.77;;;16.03;;
11044;SDS011;9786;42.714;23.272;2024-02-28T05:07:49;19.50;;;16.07;;
11044;SDS011;9786;42.714;23.272;2024-02-28T05:10:18;25.40;;;19.20;;
11044;SDS011;9786;42.714;23.272;2024-02-28T05:12:47;30.17;;;21.27;;
11044;SDS011;9786;42.714;23.272;2024-02-28T05:15:16;24.67;;;18.60;;
11044;SDS011;9786;42.714;23.272;2024-02-28T05:17:46;28.57;;;18.63;;
11044;SDS011;9786;42.714;23.272;2024-02-28T05:20:15;24.27;;;20.07;;
11044;SDS011;9786;42.714;23.272;2024-02-28T05:22:44;27.07;;;20.17;;
11044;SDS011;9786;42.714;23.272;2024-02-28T05:25:12;27.60;;;19.13;;
11044;SDS011;9786;42.714;23.272;2024-02-28T05:27:41;27.13;;;21.23;;
11044;SDS011;9786;42.714;23.272;2024-02-28T05:30:10;29.50;;;22.47;;
11044;SDS011;9786;42.714;23.272;2024-02-28T05:32:40;29.03;;;21.53;;
11044;SDS011;9786;42.714;23.272;2024-02-28T05:35:10;35.37;;;21.70;;
11044;SDS011;9786;42.714;23.272;2024-02-28T05:37:39;33.63;;;21.77;;
11044;SDS011;9786;42.714;23.272;2024-02-28T05:40:08;23.80;;;18.10;;
11044;SDS011;9786;42.714;23.272;2024-02-28T05:42:39;27.90;;;22.03;;
11044;SDS011;9786;42.714;23.272;2024-02-28T05:45:10;28.70;;;20.13;;
11044;SDS011;9786;42.714;23.272;2024-02-28T05:47:39;35.53;;;26.30;;
11044;SDS011;9786;42.714;23.272;2024-02-28T05:50:09;34.57;;;21.90;;
11044;SDS011;9786;42.714;23.272;2024-02-28T05:52:41;30.40;;;21.13;;
11044;SDS011;9786;42.714;23.272;2024-02-28T05:55:10;29.50;;;21.03;;
11044;SDS011;9786;42.714;23.272;2024-02-28T05:57:39;31.93;;;21.10;;
11044;SDS011;9786;42.714;23.272;2024-02-28T06:00:08;26.83;;;19.70;;
11044;SDS011;9786;42.714;23.272;2024-02-28T06:02:37;30.10;;;22.10;;
11044;SDS011;9786;42.714;23.272;2024-02-28T06:05:06;35.40;;;21.80;;
11044;SDS011;9786;42.714;23.272;2024-02-28T06:07:37;29.43;;;21.07;;
11044;SDS011;9786;42.714;23.272;2024-02-28T06:10:06;32.70;;;19.47;;
11044;SDS011;9786;42.714;23.272;2024-02-28T06:12:37;31.77;;;22.07;;
11044;SDS011;9786;42.714;23.272;2024-02-28T06:15:06;37.30;;;29.57;;
11044;SDS011;9786;42.714;23.272;2024-02-28T06:17:35;42.00;;;31.87;;
11044;SDS011;9786;42.714;23.272;2024-02-28T06:20:04;31.97;;;24.93;;
11044;SDS011;9786;42.714;23.272;2024-02-28T06:22:34;32.53;;;22.00;;
11044;SDS011;9786;42.714;23.272;2024-02-28T06:25:04;33.00;;;24.23;;
11044;SDS011;9786;42.714;23.272;2024-02-28T06:27:40;34.27;;;24.77;;
11044;SDS011;9786;42.714;23.272;2024-02-28T06:30:09;31.40;;;25.57;;
11044;SDS011;9786;42.714;23.272;2024-02-28T06:32:39;34.67;;;26.40;;
11044;SDS011;9786;42.714;23.272;2024-02-28T06:35:08;41.27;;;32.00;;
11044;SDS011;9786;42.714;23.272;2024-02-28T06:37:37;42.30;;;32.33;;
11044;SDS011;9786;42.714;23.272;2024-02-28T06:40:07;36.50;;;31.13;;
11044;SDS011;9786;42.714;23.272;2024-02-28T06:42:36;44.67;;;35.33;;
11044;SDS011;9786;42.714;23.272;2024-02-28T06:45:05;44.17;;;37.13;;
11044;SDS011;9786;42.714;23.272;2024-02-28T06:47:35;44.73;;;37.67;;
11044;SDS011;9786;42.714;23.272;2024-02-28T06:50:05;52.30;;;39.60;;
11044;SDS011;9786;42.714;23.272;2024-02-28T06:52:37;43.33;;;37.73;;
11044;SDS011;9786;42.714;23.272;2024-02-28T06:55:07;42.53;;;36.20;;
11044;SDS011;9786;42.714;23.272;2024-02-28T06:57:37;42.43;;;37.83;;
11044;SDS011;9786;42.714;23.272;2024-02-28T07:00:08;48.30;;;40.33;;
11044;SDS011;9786;42.714;23.272;2024-02-28T07:02:38;45.43;;;40.10;;
11044;SDS011;9786;42.714;23.272;2024-02-28T07:05:07;47.00;;;38.60;;
11044;SDS011;9786;42.714;23.272;2024-02-28T07:07:36;42.90;;;34.50;;
11044;SDS011;9786;42.714;23.272;2024-02-28T07:10:05;44.97;;;36.23;;
11044;SDS011;9786;42.714;23.272;2024-02-28T07:12:35;43.10;;;33.70;;
11044;SDS011;9786;42.714;23.272;2024-02-28T07:15:04;42.20;;;33.13;;
11044;SDS011;9786;42.714;23.272;2024-02-28T07:17:33;39.07;;;30.87;;
11044;SDS011;9786;42.714;23.272;2024-02-28T07:20:02;42.43;;;33.40;;
11044;SDS011;9786;42.714;23.272;2024-02-28T07:22:33;36.80;;;28.73;;
11044;SDS011;9786;42.714;23.272;2024-02-28T07:25:02;35.47;;;28.43;;
11044;SDS011;9786;42.714;23.272;2024-02-28T07:27:32;37.93;;;29.90;;
11044;SDS011;9786;42.714;23.272;2024-02-28T07:30:02;33.43;;;28.20;;
11044;SDS011;9786;42.714;23.272;2024-02-28T07:32:33;35.10;;;27.43;;
11044;SDS011;9786;42.714;23.272;2024-02-28T07:35:04;38.23;;;28.87;;
11044;SDS011;9786;42.714;23.272;2024-02-28T07:37:34;37.43;;;28.83;;
11044;SDS011;9786;42.714;23.272;2024-02-28T07:40:03;28.67;;;24.53;;
11044;SDS011;9786;42.714;23.272;2024-02-28T07:42:32;31.77;;;25.10;;
11044;SDS011;9786;42.714;23.272;2024-02-28T07:45:03;31.43;;;25.73;;
11044;SDS011;9786;42.714;23.272;2024-02-28T07:47:36;28.87;;;24.60;;
11044;SDS011;9786;42.714;23.272;2024-02-28T07:50:07;28.77;;;25.43;;
11044;SDS011;9786;42.714;23.272;2024-02-28T07:52:35;31.30;;;24.60;;
11044;SDS011;9786;42.714;23.272;2024-02-28T07:55:06;31.93;;;25.03;;
11044;SDS011;9786;42.714;23.272;2024-02-28T07:57:35;28.93;;;23.70;;
11044;SDS011;9786;42.714;23.272;2024-02-28T08:00:07;31.97;;;24.97;;
11044;SDS011;9786;42.714;23.272;2024-02-28T08:02:43;31.93;;;23.87;;
11044;SDS011;9786;42.714;23.272;2024-02-28T08:05:12;28.97;;;24.10;;
11044;SDS011;9786;42.714;23.272;2024-02-28T08:07:41;28.77;;;24.70;;
11044;SDS011;9786;42.714;23.272;2024-02-28T08:10:10;34.07;;;25.37;;
11044;SDS011;9786;42.714;23.272;2024-02-28T08:12:41;27.70;;;24.27;;
11044;SDS011;9786;42.714;23.272;2024-02-28T08:15:11;30.17;;;24.37;;
11044;SDS011;9786;42.714;23.272;2024-02-28T08:17:40;32.77;;;24.40;;
11044;SDS011;9786;42.714;23.272;2024-02-28T08:20:09;30.07;;;23.87;;
11044;SDS011;9786;42.714;23.272;2024-02-28T08:22:38;29.33;;;23.90;;
11044;SDS011;9786;42.714;23.272;2024-02-28T08:25:07;30.03;;;24.47;;
11044;SDS011;9786;42.714;23.272;2024-02-28T08:27:38;27.73;;;23.63;;
11044;SDS011;9786;42.714;23.272;2024-02-28T08:30:08;31.80;;;24.27;;
11044;SDS011;9786;42.714;23.272;2024-02-28T08:32:42;29.13;;;24.57;;
11044;SDS011;9786;42.714;23.272;2024-02-28T08:35:11;31.00;;;24.83;;
11044;SDS011;9786;42.714;23.272;2024-02-28T08:37:40;27.67;;;22.83;;
11044;SDS011;9786;42.714;23.272;2024-02-28T08:40:08;31.67;;;25.27;;
11044;SDS011;9786;42.714;23.272;2024-02-28T08:42:37;34.17;;;24.43;;
11044;SDS011;9786;42.714;23.272;2024-02-28T08:45:09;29.80;;;24.10;;
11044;SDS011;9786;42.714;23.272;2024-02-28T08:47:43;26.80;;;23.97;;
11044;SDS011;9786;42.714;23.272;2024-02-28T08:50:14;31.83;;;25.27;;
11044;SDS011;9786;42.714;23.272;2024-02-28T08:52:47;31.50;;;25.30;;
11044;SDS011;9786;42.714;23.272;2024-02-28T08:55:20;33.67;;;25.40;;
11044;SDS011;9786;42.714;23.272;2024-02-28T08:57:48;29.03;;;24.93;;
11044;SDS011;9786;42.714;23.272;2024-02-28T09:00:18;31.17;;;24.67;;
11044;SDS011;9786;42.714;23.272;2024-02-28T09:02:48;29.57;;;26.37;;
11044;SDS011;9786;42.714;23.272;2024-02-28T09:05:16;29.63;;;24.80;;
11044;SDS011;9786;42.714;23.272;2024-02-28T09:07:45;29.13;;;25.57;;
11044;SDS011;9786;42.714;23.272;2024-02-28T09:10:18;32.23;;;24.73;;
11044;SDS011;9786;42.714;23.272;2024-02-28T09:12:51;33.30;;;23.87;;
11044;SDS011;9786;42.714;23.272;2024-02-28T09:15:20;27.47;;;24.27;;
11044;SDS011;9786;42.714;23.272;2024-02-28T09:17:51;30.03;;;24.00;;
11044;SDS011;9786;42.714;23.272;2024-02-28T09:20:20;30.67;;;23.57;;
11044;SDS011;9786;42.714;23.272;2024-02-28T09:22:49;36.13;;;30.07;;
11044;SDS011;9786;42.714;23.272;2024-02-28T09:25:18;33.00;;;27.50;;
11044;SDS011;9786;42.714;23.272;2024-02-28T09:27:51;26.53;;;23.70;;
11044;SDS011;9786;42.714;23.272;2024-02-28T09:30:20;34.40;;;22.73;;
11044;SDS011;9786;42.714;23.272;2024-02-28T09:32:52;24.53;;;20.00;;
11044;SDS011;9786;42.714;23.272;2024-02-28T09:35:21;22.30;;;18.53;;
11044;SDS011;9786;42.714;23.272;2024-02-28T09:37:49;22.87;;;18.07;;
11044;SDS011;9786;42.714;23.272;2024-02-28T09:40:18;22.50;;;19.40;;
11044;SDS011;9786;42.714;23.272;2024-02-28T09:42:47;22.93;;;17.10;;
11044;SDS011;9786;42.714;23.272;2024-02-28T09:45:21;20.87;;;16.70;;
11044;SDS011;9786;42.714;23.272;2024-02-28T09:47:52;24.70;;;18.23;;
11044;SDS011;9786;42.714;23.272;2024-02-28T09:50:21;21.30;;;17.97;;
11044;SDS011;9786;42.714;23.272;2024-02-28T09:52:50;21.20;;;18.90;;
11044;SDS011;9786;42.714;23.272;2024-02-28T09:55:35;20.37;;;18.20;;
11044;SDS011;9786;42.714;23.272;2024-02-28T09:58:04;25.10;;;18.37;;
11044;SDS011;9786;42.714;23.272;2024-02-28T10:00:34;23.03;;;19.93;;
11044;SDS011;9786;42.714;23.272;2024-02-28T10:03:06;21.03;;;16.93;;
11044;SDS011;9786;42.714;23.272;2024-02-28T10:05:36;22.80;;;18.27;;
11044;SDS011;9786;42.714;23.272;2024-02-28T10:08:05;21.03;;;18.13;;
11044;SDS011;9786;42.714;23.272;2024-02-28T10:10:36;23.00;;;17.30;;
11044;SDS011;9786;42.714;23.272;2024-02-28T10:13:05;21.60;;;17.33;;
11044;SDS011;9786;42.714;23.272;2024-02-28T10:15:34;21.43;;;16.20;;
11044;SDS011;9786;42.714;23.272;2024-02-28T10:18:03;21.53;;;17.20;;
11044;SDS011;9786;42.714;23.272;2024-02-28T10:20:37;22.10;;;17.17;;
11044;SDS011;9786;42.714;23.272;2024-02-28T10:23:06;21.37;;;17.60;;
11044;SDS011;9786;42.714;23.272;2024-02-28T10:25:41;22.27;;;16.10;;
11044;SDS011;9786;42.714;23.272;2024-02-28T10:28:23;16.77;;;14.30;;
11044;SDS011;9786;42.714;23.272;2024-02-28T10:30:52;22.30;;;17.83;;
11044;SDS011;9786;42.714;23.272;2024-02-28T10:33:27;22.07;;;16.70;;
11044;SDS011;9786;42.714;23.272;2024-02-28T10:35:56;21.60;;;17.07;;
11044;SDS011;9786;42.714;23.272;2024-02-28T10:38:26;19.43;;;17.37;;
11044;SDS011;9786;42.714;23.272;2024-02-28T10:40:55;21.13;;;17.07;;
11044;SDS011;9786;42.714;23.272;2024-02-28T10:43:24;22.07;;;18.47;;
11044;SDS011;9786;42.714;23.272;2024-02-28T10:45:58;19.93;;;17.03;;
11044;SDS011;9786;42.714;23.272;2024-02-28T10:48:31;20.93;;;17.10;;
11044;SDS011;9786;42.714;23.272;2024-02-28T10:51:00;20.03;;;16.07;;
11044;SDS011;9786;42.714;23.272;2024-02-28T10:53:34;18.00;;;16.10;;
11044;SDS011;9786;42.714;23.272;2024-02-28T10:56:05;19.23;;;17.23;;
11044;SDS011;9786;42.714;23.272;2024-02-28T10:58:41;20.13;;;16.77;;
11044;SDS011;9786;42.714;23.272;2024-02-28T11:01:18;18.73;;;16.60;;
11044;SDS011;9786;42.714;23.272;2024-02-28T11:03:50;17.43;;;15.50;;
11044;SDS011;9786;42.714;23.272;2024-02-28T11:06:19;23.77;;;15.23;;
11044;SDS011;9786;42.714;23.272;2024-02-28T11:08:49;18.23;;;14.77;;
11044;SDS011;9786;42.714;23.272;2024-02-28T11:11:21;18.53;;;13.57;;
11044;SDS011;9786;42.714;23.272;2024-02-28T11:13:54;16.47;;;13.47;;
11044;SDS011;9786;42.714;23.272;2024-02-28T11:16:27;17.73;;;13.43;;
11044;SDS011;9786;42.714;23.272;2024-02-28T11:18:59;18.07;;;12.67;;
11044;SDS011;9786;42.714;23.272;2024-02-28T11:21:33;14.73;;;11.70;;
11044;SDS011;9786;42.714;23.272;2024-02-28T11:24:03;17.53;;;11.10;;
11044;SDS011;9786;42.714;23.272;2024-02-28T11:26:33;15.87;;;10.30;;
11044;SDS011;9786;42.714;23.272;2024-02-28T11:29:02;11.60;;;9.73;;
11044;SDS011;9786;42.714;23.272;2024-02-28T11:31:31;15.20;;;11.37;;
11044;SDS011;9786;42.714;23.272;2024-02-28T11:34:01;12.17;;;10.67;;
11044;SDS011;9786;42.714;23.272;2024-02-28T11:36:30;15.97;;;11.20;;
11044;SDS011;9786;42.714;23.272;2024-02-28T11:38:59;12.30;;;10.10;;
11044;SDS011;9786;42.714;23.272;2024-02-28T11:41:31;16.50;;;10.50;;
11044;SDS011;9786;42.714;23.272;2024-02-28T11:44:03;14.63;;;11.53;;
11044;SDS011;9786;42.714;23.272;2024-02-28T11:46:32;14.77;;;10.57;;
11044;SDS011;9786;42.714;23.272;2024-02-28T11:49:02;11.40;;;9.07;;
11044;SDS011;9786;42.714;23.272;2024-02-28T11:51:32;9.90;;;8.90;;
11044;SDS011;9786;42.714;23.272;2024-02-28T11:54:02;11.93;;;9.40;;
11044;SDS011;9786;42.714;23.272;2024-02-28T11:56:31;10.30;;;8.63;;
11044;SDS011;9786;42.714;23.272;2024-02-28T11:59:00;12.60;;;10.00;;
11044;SDS011;9786;42.714;23.272;2024-02-28T12:01:33;12.97;;;9.07;;
11044;SDS011;9786;42.714;23.272;2024-02-28T12:04:05;8.93;;;8.03;;
11044;SDS011;9786;42.714;23.272;2024-02-28T12:06:34;10.60;;;8.40;;
11044;SDS011;9786;42.714;23.272;2024-02-28T12:09:05;10.47;;;7.23;;
11044;SDS011;9786;42.714;23.272;2024-02-28T12:11:36;12.17;;;7.43;;
11044;SDS011;9786;42.714;23.272;2024-02-28T12:14:06;16.60;;;12.63;;
11044;SDS011;9786;42.714;23.272;2024-02-28T12:16:36;12.77;;;8.50;;
11044;SDS011;9786;42.714;23.272;2024-02-28T12:19:09;9.10;;;8.00;;
11044;SDS011;9786;42.714;23.272;2024-02-28T12:21:39;14.37;;;9.80;;
11044;SDS011;9786;42.714;23.272;2024-02-28T12:24:07;15.33;;;8.27;;
11044;SDS011;9786;42.714;23.272;2024-02-28T12:26:37;11.87;;;9.23;;
11044;SDS011;9786;42.714;23.272;2024-02-28T12:29:07;10.60;;;7.57;;
11044;SDS011;9786;42.714;23.272;2024-02-28T12:31:37;11.57;;;6.97;;
11044;SDS011;9786;42.714;23.272;2024-02-28T12:34:07;11.70;;;6.40;;
11044;SDS011;9786;42.714;23.272;2024-02-28T12:36:38;8.83;;;6.67;;
11044;SDS011;9786;42.714;23.272;2024-02-28T12:39:09;10.17;;;8.07;;
11044;SDS011;9786;42.714;23.272;2024-02-28T12:41:38;8.53;;;7.63;;
11044;SDS011;9786;42.714;23.272;2024-02-28T12:44:09;11.27;;;8.17;;
11044;SDS011;9786;42.714;23.272;2024-02-28T12:46:38;11.27;;;7.20;;
11044;SDS011;9786;42.714;23.272;2024-02-28T12:49:14;11.33;;;8.27;;
11044;SDS011;9786;42.714;23.272;2024-02-28T12:51:45;8.73;;;6.60;;
11044;SDS011;9786;42.714;23.272;2024-02-28T12:54:16;10.93;;;6.30;;
11044;SDS011;9786;42.714;23.272;2024-02-28T12:56:46;9.63;;;6.77;;
11044;SDS011;9786;42.714;23.272;2024-02-28T12:59:16;8.20;;;6.37;;
11044;SDS011;9786;42.714;23.272;2024-02-28T13:01:44;11.50;;;7.97;;
11044;SDS011;9786;42.714;23.272;2024-02-28T13:04:16;8.67;;;6.97;;
11044;SDS011;9786;42.714;23.272;2024-02-28T13:06:46;12.67;;;8.87;;
11044;SDS011;9786;42.714;23.272;2024-02-28T13:09:16;13.30;;;8.00;;
11044;SDS011;9786;42.714;23.272;2024-02-28T13:11:44;9.63;;;8.23;;
11044;SDS011;9786;42.714;23.272;2024-02-28T13:20:55;14.33;;;10.03;;
11044;SDS011;9786;42.714;23.272;2024-02-28T13:23:24;12.07;;;9.43;;
11044;SDS011;9786;42.714;23.272;2024-02-28T13:25:53;14.60;;;9.37;;
11044;SDS011;9786;42.714;23.272;2024-02-28T13:28:22;13.43;;;9.10;;
11044;SDS011;9786;42.714;23.272;2024-02-28T13:30:56;11.93;;;9.63;;
11044;SDS011;9786;42.714;23.272;2024-02-28T13:33:25;11.27;;;8.67;;
11044;SDS011;9786;42.714;23.272;2024-02-28T13:35:56;11.13;;;9.10;;
11044;SDS011;9786;42.714;23.272;2024-02-28T13:38:25;12.40;;;9.13;;
11044;SDS011;9786;42.714;23.272;2024-02-28T13:40:53;10.07;;;8.30;;
11044;SDS011;9786;42.714;23.272;2024-02-28T13:43:22;10.27;;;9.27;;
11044;SDS011;9786;42.714;23.272;2024-02-28T13:45:51;12.67;;;9.57;;
11044;SDS011;9786;42.714;23.272;2024-02-28T13:48:21;11.63;;;10.43;;
11044;SDS011;9786;42.714;23.272;2024-02-28T13:50:52;13.13;;;9.70;;
11044;SDS011;9786;42.714;23.272;2024-02-28T13:53:22;11.10;;;9.20;;
11044;SDS011;9786;42.714;23.272;2024-02-28T13:55:52;12.80;;;8.93;;
11044;SDS011;9786;42.714;23.272;2024-02-28T13:58:20;12.00;;;8.50;;
11044;SDS011;9786;42.714;23.272;2024-02-28T14:00:49;11.90;;;8.77;;
11044;SDS011;9786;42.714;23.272;2024-02-28T14:03:18;10.87;;;7.70;;
11044;SDS011;9786;42.714;23.272;2024-02-28T14:05:47;10.03;;;8.37;;
11044;SDS011;9786;42.714;23.272;2024-02-28T14:08:16;12.03;;;7.80;;
11044;SDS011;9786;42.714;23.272;2024-02-28T14:10:47;10.17;;;9.13;;
11044;SDS011;9786;42.714;23.272;2024-02-28T14:13:17;11.00;;;8.20;;
11044;SDS011;9786;42.714;23.272;2024-02-28T14:15:45;10.33;;;7.67;;
11044;SDS011;9786;42.714;23.272;2024-02-28T14:18:14;9.87;;;7.83;;
11044;SDS011;9786;42.714;23.272;2024-02-28T14:20:44;10.93;;;7.77;;
11044;SDS011;9786;42.714;23.272;2024-02-28T14:23:13;12.17;;;7.90;;
11044;SDS011;9786;42.714;23.272;2024-02-28T14:25:42;11.07;;;7.10;;
11044;SDS011;9786;42.714;23.272;2024-02-28T14:28:12;9.57;;;7.07;;
11044;SDS011;9786;42.714;23.272;2024-02-28T14:30:43;8.83;;;7.17;;
11044;SDS011;9786;42.714;23.272;2024-02-28T14:33:12;11.73;;;7.47;;
11044;SDS011;9786;42.714;23.272;2024-02-28T14:35:43;10.33;;;7.07;;
11044;SDS011;9786;42.714;23.272;2024-02-28T14:38:12;12.70;;;7.53;;
11044;SDS011;9786;42.714;23.272;2024-02-28T14:40:41;12.57;;;7.53;;
11044;SDS011;9786;42.714;23.272;2024-02-28T14:43:09;14.00;;;8.37;;
11044;SDS011;9786;42.714;23.272;2024-02-28T14:45:40;9.87;;;6.97;;